Time;durP1;ratioP1;P1;durP2;ratioP2;P2;SDS_P1;SDS_P2;PMS_P1;PMS_P2;Temp;Humidity;BMP_temperature;BMP_pressure;BME280_temperature;BME280_humidity;BME280_pressure;Samples;Min_cycle;Max_cycle;Signal;HPM_P1;HPM_P2
2022/07/21 00:00:22;;;;;;;4.60;3.70;;;;;;;25.28;100.00;96573.06;5048046;28;20084;-46
2022/07/21 00:02:51;;;;;;;8.03;3.90;;;;;;;25.21;100.00;96575.88;5044213;28;20841;-53
2022/07/21 00:05:20;;;;;;;5.90;3.85;;;;;;;25.17;100.00;96577.41;5048443;28;20099;-53
2022/07/21 00:07:49;;;;;;;5.53;3.97;;;;;;;25.14;100.00;96588.66;5048921;28;20381;-50
2022/07/21 00:10:17;;;;;;;5.75;3.90;;;;;;;25.12;100.00;96588.09;5042464;28;20088;-49
2022/07/21 00:12:46;;;;;;;6.57;4.10;;;;;;;25.02;100.00;96590.50;5044141;28;20089;-49
2022/07/21 00:15:18;;;;;;;8.40;4.10;;;;;;;24.90;100.00;96586.97;5049014;28;20108;-54
2022/07/21 00:17:46;;;;;;;6.15;3.92;;;;;;;24.96;100.00;96588.72;5048921;28;20084;-47
2022/07/21 00:20:17;;;;;;;8.30;3.92;;;;;;;25.00;100.00;96598.00;5048566;28;20087;-55
2022/07/21 00:22:45;;;;;;;8.30;3.75;;;;;;;24.76;100.00;96603.34;5048501;28;20088;-51
2022/07/21 00:25:14;;;;;;;6.50;4.57;;;;;;;24.45;100.00;96588.25;5048589;28;20096;-49
2022/07/21 00:27:43;;;;;;;9.65;4.47;;;;;;;24.84;100.00;96586.00;5051486;28;20736;-48
2022/07/21 00:30:13;;;;;;;7.90;4.22;;;;;;;24.49;100.00;96578.66;5046629;28;20080;-55
2022/07/21 00:32:42;;;;;;;10.93;4.50;;;;;;;24.62;100.00;96570.38;5048529;28;20088;-49
2022/07/21 00:35:12;;;;;;;7.82;4.85;;;;;;;24.41;100.00;96564.69;5048437;28;20107;-49
2022/07/21 00:37:41;;;;;;;7.73;4.70;;;;;;;24.67;100.00;96568.84;5045505;28;20557;-50
2022/07/21 00:40:11;;;;;;;7.88;4.68;;;;;;;24.56;100.00;96578.56;5047973;28;20080;-47
2022/07/21 00:42:39;;;;;;;8.13;4.65;;;;;;;24.42;100.00;96582.50;5048713;28;20081;-49
2022/07/21 00:45:09;;;;;;;6.53;4.55;;;;;;;24.61;100.00;96582.22;5047973;28;20073;-50
2022/07/21 00:47:38;;;;;;;7.38;4.93;;;;;;;24.44;100.00;96592.00;5048442;28;20084;-50
2022/07/21 00:50:10;;;;;;;6.07;4.70;;;;;;;24.35;100.00;96599.53;5043574;28;20115;-51
2022/07/21 00:52:38;;;;;;;6.72;4.88;;;;;;;24.62;100.00;96607.31;5047513;28;20085;-52
2022/07/21 00:55:10;;;;;;;6.43;4.68;;;;;;;24.66;100.00;96604.97;5048040;28;20085;-55
2022/07/21 00:57:38;;;;;;;6.75;4.38;;;;;;;24.29;100.00;96605.84;5048231;28;20494;-53
2022/07/21 01:00:09;;;;;;;6.72;5.15;;;;;;;24.13;100.00;96609.19;5042717;28;20096;-51
2022/07/21 01:02:38;;;;;;;8.68;4.90;;;;;;;23.92;100.00;96635.53;5050622;28;20079;-47
2022/07/21 01:05:12;;;;;;;12.55;5.00;;;;;;;23.60;100.00;96634.81;5048769;28;20187;-47
2022/07/21 01:07:41;;;;;;;6.60;4.70;;;;;;;23.58;100.00;96630.72;5046373;28;20100;-49
2022/07/21 01:10:11;;;;;;;5.53;4.45;;;;;;;23.84;100.00;96618.84;5052213;28;20480;-53
2022/07/21 01:12:39;;;;;;;9.52;5.00;;;;;;;23.80;100.00;96615.78;5052746;28;20092;-46
2022/07/21 01:15:10;;;;;;;11.43;4.65;;;;;;;23.72;100.00;96616.09;5052022;28;20083;-47
2022/07/21 01:17:38;;;;;;;5.45;4.35;;;;;;;23.58;100.00;96622.63;5051479;28;20083;-50
2022/07/21 01:20:11;;;;;;;6.28;5.07;;;;;;;23.45;100.00;96628.97;5051760;28;20077;-49
2022/07/21 01:22:43;;;;;;;6.07;4.82;;;;;;;23.24;100.00;96627.50;5053185;28;20071;-49
2022/07/21 01:25:12;;;;;;;8.60;5.28;;;;;;;23.25;100.00;96631.81;5046508;28;20085;-47
2022/07/21 01:27:40;;;;;;;6.13;5.18;;;;;;;23.35;100.00;96636.72;5051861;28;20049;-46
2022/07/21 01:30:10;;;;;;;8.52;5.45;;;;;;;23.29;100.00;96637.59;5051814;28;20597;-48
2022/07/21 01:32:39;;;;;;;7.93;5.38;;;;;;;23.32;100.00;96627.22;5051645;28;20099;-46
2022/07/21 01:35:10;;;;;;;8.83;5.57;;;;;;;23.01;100.00;96628.09;5051629;28;20076;-50
2022/07/21 01:37:42;;;;;;;9.38;5.80;;;;;;;23.30;100.00;96633.88;5054242;28;20537;-46
2022/07/21 01:42:58;;;;;;;12.85;6.00;;;;;;;23.44;100.00;96628.16;5051537;28;20515;-48
2022/07/21 01:45:28;;;;;;;7.90;5.68;;;;;;;23.29;100.00;96632.22;5051569;28;20077;-49
2022/07/21 01:47:56;;;;;;;7.90;5.82;;;;;;;23.43;100.00;96633.72;5051759;28;20084;-51
2022/07/21 01:50:27;;;;;;;7.20;5.05;;;;;;;23.35;100.00;96626.78;5051872;28;20071;-46
2022/07/21 01:52:58;;;;;;;9.05;5.75;;;;;;;23.69;100.00;96613.84;5051474;28;20155;-49
2022/07/21 01:55:28;;;;;;;7.00;5.32;;;;;;;23.74;100.00;96608.59;5050898;28;20526;-51
2022/07/21 01:57:57;;;;;;;7.70;5.22;;;;;;;23.69;100.00;96603.06;5048032;28;20072;-46
2022/07/21 02:00:25;;;;;;;8.43;5.75;;;;;;;23.65;100.00;96607.22;5050838;28;20084;-49
2022/07/21 02:02:53;;;;;;;7.13;5.32;;;;;;;23.57;100.00;96608.34;5048379;28;20131;-50
2022/07/21 02:05:23;;;;;;;7.53;6.03;;;;;;;23.78;100.00;96604.44;5050515;28;20087;-51
2022/07/21 02:07:51;;;;;;;10.13;5.68;;;;;;;23.72;100.00;96610.69;5051091;28;20551;-51
2022/07/21 02:10:21;;;;;;;9.13;5.55;;;;;;;23.78;100.00;96609.81;5050461;28;20527;-48
2022/07/21 02:12:50;;;;;;;7.18;5.65;;;;;;;23.77;100.00;96615.41;5050835;28;20044;-53
2022/07/21 02:15:18;;;;;;;7.22;5.70;;;;;;;23.90;100.00;96609.88;5050989;28;20048;-46
2022/07/21 02:17:47;;;;;;;7.78;6.10;;;;;;;23.79;100.00;96616.00;5051026;28;20092;-52
2022/07/21 02:20:15;;;;;;;7.00;6.00;;;;;;;23.77;100.00;96618.09;5046552;28;20096;-46
2022/07/21 02:22:45;;;;;;;8.32;5.68;;;;;;;23.80;100.00;96626.56;5050433;28;20738;-50
2022/07/21 02:25:14;;;;;;;8.38;5.82;;;;;;;23.75;100.00;96626.41;5050628;28;20114;-49
2022/07/21 02:27:45;;;;;;;6.30;5.70;;;;;;;23.61;100.00;96630.25;5050903;28;20424;-56
2022/07/21 02:30:14;;;;;;;11.27;6.07;;;;;;;23.97;100.00;96625.97;5050632;28;20080;-51
2022/07/21 02:32:42;;;;;;;9.17;5.97;;;;;;;23.88;100.00;96631.66;5050707;28;20079;-56
2022/07/21 02:35:11;;;;;;;9.07;6.13;;;;;;;24.15;100.00;96615.16;5050362;28;20076;-54
2022/07/21 02:37:39;;;;;;;9.13;6.20;;;;;;;24.01;100.00;96624.44;5050285;28;20084;-49
2022/07/21 02:40:09;;;;;;;9.50;5.90;;;;;;;23.93;100.00;96628.28;5050392;28;20080;-54
2022/07/21 02:42:39;;;;;;;7.20;5.78;;;;;;;23.87;100.00;96631.88;5041884;28;20064;-55
2022/07/21 02:45:10;;;;;;;10.07;6.30;;;;;;;23.97;100.00;96634.84;5050357;28;20463;-49
2022/07/21 02:47:52;;;;;;;9.02;6.53;;;;;;;23.92;100.00;96640.94;5050230;28;20497;-46
2022/07/21 02:50:21;;;;;;;8.52;6.60;;;;;;;23.97;100.00;96644.81;5045349;28;20080;-49
2022/07/21 02:52:50;;;;;;;9.15;6.32;;;;;;;23.86;100.00;96654.47;5048181;28;20081;-54
2022/07/21 02:55:18;;;;;;;8.23;6.47;;;;;;;23.69;100.00;96651.53;5050516;28;20084;-46
2022/07/21 02:57:47;;;;;;;8.27;6.60;;;;;;;23.65;100.00;96651.13;5046313;28;20088;-52
2022/07/21 03:00:17;;;;;;;9.18;6.15;;;;;;;23.41;100.00;96647.41;5049805;28;20088;-49
2022/07/21 03:02:45;;;;;;;8.88;6.78;;;;;;;23.62;100.00;96639.97;5046728;28;20507;-48
2022/07/21 03:05:14;;;;;;;8.25;6.57;;;;;;;23.63;100.00;96644.31;5049478;28;20087;-48
2022/07/21 03:07:42;;;;;;;7.40;6.57;;;;;;;23.52;100.00;96642.34;5050428;28;20073;-49
2022/07/21 03:10:10;;;;;;;8.30;6.50;;;;;;;23.53;100.00;96638.63;5049677;28;20148;-50
2022/07/21 03:12:39;;;;;;;10.57;6.80;;;;;;;23.45;100.00;96628.97;5049753;28;20087;-54
2022/07/21 03:15:08;;;;;;;9.15;7.03;;;;;;;23.59;100.00;96629.66;5049316;28;20091;-51
2022/07/21 03:17:38;;;;;;;9.80;6.70;;;;;;;23.56;100.00;96616.63;5045622;28;20092;-46
2022/07/21 03:20:07;;;;;;;13.02;7.40;;;;;;;23.79;100.00;96616.84;5046326;28;20519;-48
2022/07/21 03:22:36;;;;;;;8.95;7.00;;;;;;;24.04;100.00;96610.53;5047637;28;20088;-54
2022/07/21 03:25:05;;;;;;;9.15;7.05;;;;;;;24.01;100.00;96610.97;5046337;28;20076;-49
2022/07/21 03:27:36;;;;;;;10.82;6.50;;;;;;;24.05;100.00;96617.56;5049903;28;20084;-49
2022/07/21 03:30:06;;;;;;;10.07;6.82;;;;;;;23.86;100.00;96622.97;5049881;28;20080;-52
2022/07/21 03:32:35;;;;;;;8.93;6.68;;;;;;;23.98;100.00;96633.81;5049848;28;20084;-46
2022/07/21 03:35:07;;;;;;;10.32;6.57;;;;;;;23.92;100.00;96638.25;5049515;28;20077;-47
2022/07/21 03:37:41;;;;;;;8.02;7.07;;;;;;;23.98;100.00;96638.38;5049522;28;20742;-51
2022/07/21 03:40:11;;;;;;;9.20;6.90;;;;;;;23.94;100.00;96643.38;5049640;28;20080;-49
2022/07/21 03:42:39;;;;;;;10.60;7.40;;;;;;;23.96;100.00;96640.47;5049741;28;20523;-52
2022/07/21 03:45:09;;;;;;;8.48;7.03;;;;;;;23.86;100.00;96646.38;5050345;28;20088;-47
2022/07/21 03:47:38;;;;;;;9.05;6.82;;;;;;;23.98;100.00;96639.19;5044789;28;20080;-49
2022/07/21 03:50:09;;;;;;;9.40;6.85;;;;;;;24.25;100.00;96638.88;5043184;28;20092;-49
2022/07/21 03:52:37;;;;;;;9.70;6.78;;;;;;;24.11;100.00;96649.00;5048835;28;20535;-55
2022/07/21 03:55:09;;;;;;;10.13;7.32;;;;;;;24.13;100.00;96647.72;5044995;28;20096;-52
2022/07/21 03:57:45;;;;;;;7.93;6.47;;;;;;;23.99;100.00;96656.19;5048935;28;20471;-49
2022/07/21 04:00:16;;;;;;;8.02;6.97;;;;;;;24.26;100.00;96654.00;5048989;28;20535;-46
2022/07/21 04:02:45;;;;;;;9.98;7.50;;;;;;;24.22;100.00;96655.50;5048735;28;20080;-46
2022/07/21 04:05:16;;;;;;;9.82;7.45;;;;;;;24.49;100.00;96650.63;5048902;28;20088;-46
2022/07/21 04:07:44;;;;;;;;;;;;;;;24.57;100.00;96651.16;5049519;28;20072;-50
2022/07/21 04:10:14;;;;;;;8.98;7.55;;;;;;;24.26;100.00;96649.44;5048885;28;19947;-53
2022/07/21 04:12:42;;;;;;;10.07;7.63;;;;;;;24.19;100.00;96655.94;5046013;28;20080;-55
2022/07/21 04:15:11;;;;;;;9.38;7.05;;;;;;;24.38;100.00;96665.66;5038978;28;20480;-56
2022/07/21 04:17:41;;;;;;;13.05;7.68;;;;;;;24.02;100.00;96679.97;5048806;28;20502;-51
2022/07/21 04:20:11;;;;;;;9.25;7.43;;;;;;;24.13;100.00;96681.94;5048512;28;20095;-56
2022/07/21 04:22:41;;;;;;;10.13;7.68;;;;;;;24.17;100.00;96683.94;5048725;28;20178;-55
2022/07/21 04:25:10;;;;;;;;;;;;;;;23.82;100.00;96683.72;5049151;28;20083;-53
2022/07/21 04:27:38;;;;;;;10.88;8.55;;;;;;;24.05;100.00;96679.53;5048705;28;19960;-52
2022/07/21 04:30:09;;;;;;;11.98;8.85;;;;;;;23.71;100.00;96681.78;5050597;28;20080;-50
2022/07/21 04:32:38;;;;;;;13.77;9.13;;;;;;;23.41;100.00;96698.56;5049136;28;20081;-46
2022/07/21 04:35:07;;;;;;;14.15;8.25;;;;;;;23.37;100.00;96697.38;5048610;28;20632;-53
2022/07/21 04:37:36;;;;;;;12.25;9.18;;;;;;;23.61;100.00;96698.41;5048885;28;20843;-46
2022/07/21 04:40:08;;;;;;;12.05;9.35;;;;;;;23.44;100.00;96708.88;5048208;28;20089;-51
2022/07/21 04:42:37;;;;;;;12.18;9.43;;;;;;;23.62;100.00;96710.81;5046028;28;20084;-52
2022/07/21 04:45:08;;;;;;;11.85;10.43;;;;;;;23.53;100.00;96722.06;5042407;28;20092;-63
2022/07/21 04:47:42;;;;;;;;;;;;;;;23.02;100.00;96725.75;5046889;28;20092;-58
2022/07/21 04:50:12;;;;;;;14.07;11.18;;;;;;;23.27;100.00;96715.03;5048226;28;19978;-49
2022/07/21 04:52:40;;;;;;;13.27;10.80;;;;;;;23.45;100.00;96721.31;5045862;28;20087;-56
2022/07/21 04:55:11;;;;;;;13.73;11.25;;;;;;;23.10;100.00;96730.88;5045847;28;20088;-52
2022/07/21 04:57:39;;;;;;;15.90;11.20;;;;;;;23.25;100.00;96728.69;5048323;28;20103;-56
2022/07/21 05:00:10;;;;;;;13.55;10.80;;;;;;;23.10;100.00;96733.56;5048558;28;20080;-49
2022/07/21 05:02:39;;;;;;;14.55;11.15;;;;;;;23.09;100.00;96745.34;5047974;28;20095;-52
2022/07/21 05:05:08;;;;;;;14.32;11.80;;;;;;;23.19;100.00;96741.19;5048304;28;20257;-56
2022/07/21 05:07:37;;;;;;;13.65;11.15;;;;;;;23.36;100.00;96735.25;5045815;28;20089;-47
2022/07/21 05:10:06;;;;;;;15.38;11.90;;;;;;;23.53;100.00;96751.69;5038287;28;20077;-49
2022/07/21 05:12:36;;;;;;;15.38;12.05;;;;;;;23.40;100.00;96755.28;5044922;28;20099;-52
2022/07/21 05:15:09;;;;;;;15.57;11.70;;;;;;;23.10;100.00;96758.63;5048509;28;20091;-48
2022/07/21 05:17:37;;;;;;;15.15;12.52;;;;;;;23.24;100.00;96762.03;5045995;28;20073;-49
2022/07/21 05:20:07;;;;;;;15.10;12.38;;;;;;;23.21;100.00;96765.16;5048353;28;20476;-51
2022/07/21 05:22:35;;;;;;;16.77;12.48;;;;;;;23.80;100.00;96763.09;5048021;28;20107;-47
2022/07/21 05:25:05;;;;;;;15.93;12.60;;;;;;;23.21;100.00;96760.59;5048294;28;20068;-48
2022/07/21 05:27:33;;;;;;;14.00;11.73;;;;;;;23.97;100.00;96764.16;5048083;28;20477;-52
2022/07/21 05:30:04;;;;;;;14.55;13.02;;;;;;;23.51;100.00;96770.75;5048117;28;20536;-49
2022/07/21 05:32:32;;;;;;;15.18;11.98;;;;;;;23.77;100.00;96764.34;5042666;28;20483;-49
2022/07/21 05:35:00;;;;;;;16.73;11.15;;;;;;;23.97;100.00;96764.16;5047197;28;20112;-49
2022/07/21 05:37:29;;;;;;;15.38;11.30;;;;;;;23.95;100.00;96768.13;5048417;28;20064;-51
2022/07/21 05:39:57;;;;;;;14.23;10.90;;;;;;;23.98;100.00;96775.75;5047832;28;20069;-47
2022/07/21 05:42:25;;;;;;;15.20;11.65;;;;;;;23.72;100.00;96779.53;5044990;28;20072;-46
2022/07/21 05:44:55;;;;;;;14.35;11.20;;;;;;;24.35;100.00;96766.69;5047617;28;20551;-57
2022/07/21 05:47:24;;;;;;;14.75;11.45;;;;;;;23.93;100.00;96768.34;5050896;28;20079;-50
2022/07/21 05:49:53;;;;;;;16.15;11.45;;;;;;;24.23;100.00;96773.06;5051455;28;20679;-49
2022/07/21 05:52:21;;;;;;;13.02;11.60;;;;;;;24.48;100.00;96767.63;5051685;28;20103;-51
2022/07/21 05:54:49;;;;;;;16.10;11.45;;;;;;;24.77;100.00;96771.41;5051441;28;20096;-56
2022/07/21 05:57:18;;;;;;;16.48;11.27;;;;;;;25.08;100.00;96771.19;5050829;28;20065;-47
2022/07/21 05:59:46;;;;;;;13.70;11.52;;;;;;;24.93;100.00;96772.66;5044828;28;20092;-54
2022/07/21 06:02:15;;;;;;;14.35;11.95;;;;;;;24.56;100.00;96786.19;5046314;28;20084;-47
2022/07/21 06:04:45;;;;;;;13.50;11.57;;;;;;;24.78;100.00;96776.59;5041947;28;20084;-62
2022/07/21 06:07:13;;;;;;;15.52;12.27;;;;;;;24.68;100.00;96786.28;5043388;28;20085;-56
2022/07/21 06:09:42;;;;;;;13.27;11.50;;;;;;;24.30;100.00;96782.72;5051242;28;20095;-51
2022/07/21 06:12:10;;;;;;;18.33;12.30;;;;;;;24.43;100.00;96784.44;5050636;28;20084;-50
2022/07/21 06:14:38;;;;;;;14.95;11.93;;;;;;;24.16;100.00;96791.97;5046939;28;20455;-52
2022/07/21 06:17:07;;;;;;;14.70;11.10;;;;;;;24.36;100.00;96794.44;5051322;28;20088;-48
2022/07/21 06:19:36;;;;;;;13.05;11.25;;;;;;;24.53;100.00;96795.53;5051237;28;20392;-62
2022/07/21 06:22:05;;;;;;;14.45;11.38;;;;;;;24.69;100.00;96788.72;5050889;28;20073;-56
2022/07/21 06:24:34;;;;;;;12.88;11.00;;;;;;;24.88;100.00;96792.25;5050890;28;20091;-50
2022/07/21 06:27:02;;;;;;;14.00;10.85;;;;;;;25.14;100.00;96801.88;5051904;28;20138;-47
2022/07/21 06:29:33;;;;;;;16.20;10.93;;;;;;;24.92;100.00;96798.00;5045866;28;20087;-52
2022/07/21 06:32:02;;;;;;;13.57;10.73;;;;;;;25.21;100.00;96808.00;5050734;28;20080;-50
2022/07/21 06:34:30;;;;;;;14.05;11.20;;;;;;;25.27;100.00;96808.97;5050644;28;20080;-49
2022/07/21 06:36:59;;;;;;;13.60;11.15;;;;;;;25.28;100.00;96807.91;5050349;28;20112;-48
2022/07/21 06:39:28;;;;;;;13.30;11.10;;;;;;;25.01;100.00;96813.63;5050525;28;20690;-46
2022/07/21 06:41:57;;;;;;;13.63;10.65;;;;;;;24.86;100.00;96822.13;5047118;28;20085;-52
2022/07/21 06:44:25;;;;;;;14.18;11.48;;;;;;;25.08;100.00;96827.84;5046859;28;20464;-49
2022/07/21 06:46:54;;;;;;;11.38;9.80;;;;;;;24.92;100.00;96820.41;5047402;28;20080;-60
2022/07/21 06:49:22;;;;;;;14.88;10.57;;;;;;;24.97;100.00;96825.13;5050125;28;20848;-49
2022/07/21 06:51:51;;;;;;;15.25;11.27;;;;;;;24.77;100.00;96834.25;5050366;28;20091;-51
2022/07/21 06:54:19;;;;;;;15.80;11.18;;;;;;;24.36;100.00;96833.03;5045469;28;20085;-48
2022/07/21 06:56:49;;;;;;;14.15;10.95;;;;;;;24.25;100.00;96832.94;5049787;28;20084;-48
2022/07/21 06:59:17;;;;;;;14.70;12.02;;;;;;;24.54;100.00;96832.25;5049175;28;20092;-55
2022/07/21 07:01:45;;;;;;;15.32;12.02;;;;;;;24.97;100.00;96836.72;5045651;28;20088;-49
2022/07/21 07:04:14;;;;;;;15.68;11.70;;;;;;;24.73;100.00;96833.06;5041968;28;20072;-54
2022/07/21 07:06:43;;;;;;;16.00;11.20;;;;;;;24.60;100.00;96836.75;5050635;28;20072;-51
2022/07/21 07:09:12;;;;;;;16.77;11.40;;;;;;;24.90;100.00;96840.56;5050007;28;20091;-50
2022/07/21 07:11:40;;;;;;;13.77;11.77;;;;;;;25.38;100.00;96837.88;5050097;28;20083;-54
2022/07/21 07:14:30;;;;;;;13.65;11.30;;;;;;;25.79;100.00;96836.25;5050458;28;20483;-50
2022/07/21 07:16:58;;;;;;;14.43;11.40;;;;;;;25.65;100.00;96837.50;5050662;28;20499;-53
2022/07/21 07:19:27;;;;;;;14.27;11.35;;;;;;;26.19;100.00;96841.03;5050640;28;20080;-57
2022/07/21 07:21:55;;;;;;;13.70;11.27;;;;;;;26.12;100.00;96835.75;5050163;28;20076;-57
2022/07/21 07:24:24;;;;;;;14.10;11.63;;;;;;;26.04;100.00;96842.28;5050224;28;20087;-47
2022/07/21 07:26:52;;;;;;;15.63;11.60;;;;;;;25.69;100.00;96839.50;5049387;28;20080;-51
2022/07/21 07:29:20;;;;;;;13.93;11.00;;;;;;;25.70;100.00;96843.03;5049733;28;20085;-54
2022/07/21 07:31:50;;;;;;;15.98;11.38;;;;;;;25.58;100.00;96843.81;5049192;28;20613;-50
2022/07/21 07:34:18;;;;;;;14.25;11.43;;;;;;;25.63;100.00;96845.00;5042170;28;20084;-46
2022/07/21 07:36:47;;;;;;;13.48;11.90;;;;;;;25.57;100.00;96846.78;5047280;28;20142;-55
2022/07/21 07:39:15;;;;;;;15.48;11.88;;;;;;;26.14;100.00;96849.00;5047319;28;20076;-52
2022/07/21 07:41:44;;;;;;;14.65;12.18;;;;;;;26.11;100.00;96844.88;5044658;28;20095;-47
2022/07/21 07:44:12;;;;;;;17.08;11.38;;;;;;;26.02;100.00;96851.72;5049772;28;20087;-47
2022/07/21 07:46:41;;;;;;;15.18;11.63;;;;;;;25.86;100.00;96849.69;5049471;28;20096;-52
2022/07/21 07:49:10;;;;;;;13.30;11.38;;;;;;;25.87;100.00;96859.44;5052731;28;20080;-46
2022/07/21 07:51:46;;;;;;;14.98;10.95;;;;;;;25.73;100.00;96853.38;5045408;28;20085;-53
2022/07/21 07:54:14;;;;;;;13.50;10.95;;;;;;;25.55;100.00;96848.88;5049198;28;20085;-48
2022/07/21 07:56:43;;;;;;;15.10;12.05;;;;;;;25.73;100.00;96847.97;5046002;28;20178;-49
2022/07/21 07:59:11;;;;;;;13.50;11.63;;;;;;;25.88;100.00;96850.25;5036965;28;20092;-48
2022/07/21 08:01:40;;;;;;;14.77;11.43;;;;;;;26.23;100.00;96851.13;5049011;28;20080;-52
2022/07/21 08:04:09;;;;;;;12.93;10.93;;;;;;;26.49;100.00;96851.75;5049430;28;20084;-55
2022/07/21 08:06:38;;;;;;;12.65;11.35;;;;;;;26.79;100.00;96856.19;5049249;28;20076;-53
2022/07/21 08:09:07;;;;;;;13.93;11.70;;;;;;;26.55;100.00;96850.00;5048804;28;20095;-54
2022/07/21 08:11:35;;;;;;;13.48;10.95;;;;;;;27.03;100.00;96849.66;5049076;28;20088;-51
2022/07/21 08:14:04;;;;;;;11.98;10.55;;;;;;;26.80;100.00;96849.72;5049304;28;20080;-50
2022/07/21 08:16:32;;;;;;;13.43;11.32;;;;;;;26.60;100.00;96853.66;5049400;28;20080;-47
2022/07/21 08:19:01;;;;;;;14.98;11.82;;;;;;;27.27;100.00;96846.91;5048608;28;20087;-53
2022/07/21 08:21:30;;;;;;;12.90;11.05;;;;;;;27.66;100.00;96853.31;5044088;28;20091;-56
2022/07/21 08:24:20;;;;;;;13.73;11.73;;;;;;;26.51;100.00;96853.16;5049316;28;20084;-48
2022/07/21 08:26:48;;;;;;;13.02;11.13;;;;;;;27.25;100.00;96852.56;5049079;28;20502;-49
2022/07/21 08:29:17;;;;;;;12.48;11.15;;;;;;;27.17;100.00;96855.66;5048855;28;20080;-49
2022/07/21 08:31:45;;;;;;;13.63;11.05;;;;;;;26.26;100.00;96860.66;5040127;28;20080;-47
2022/07/21 08:34:14;;;;;;;11.93;10.73;;;;;;;26.98;100.00;96860.41;5057086;28;20087;-48
2022/07/21 08:36:42;;;;;;;14.18;11.25;;;;;;;27.36;100.00;96861.72;5045943;28;20096;-56
2022/07/21 08:39:10;;;;;;;16.17;11.70;;;;;;;27.15;100.00;96861.31;5048821;28;20068;-55
2022/07/21 08:41:41;;;;;;;14.68;11.10;;;;;;;27.12;100.00;96864.50;5048176;28;20077;-49
2022/07/21 08:44:10;;;;;;;12.20;10.93;;;;;;;27.29;100.00;96864.59;5045389;28;20073;-50
2022/07/21 08:46:42;;;;;;;13.23;11.93;;;;;;;27.31;100.00;96859.72;5041900;28;20081;-51
2022/07/21 08:49:11;;;;;;;13.02;11.73;;;;;;;27.70;100.00;96859.91;5048422;28;20578;-56
2022/07/21 08:51:40;;;;;;;13.32;11.93;;;;;;;27.66;100.00;96856.84;5048575;28;20556;-52
2022/07/21 08:54:08;;;;;;;12.88;11.45;;;;;;;27.54;100.00;96861.53;5039420;28;20470;-53
2022/07/21 08:56:36;;;;;;;14.65;12.68;;;;;;;27.65;100.00;96868.78;5046343;28;20163;-50
2022/07/21 08:59:06;;;;;;;14.55;12.00;;;;;;;27.75;100.00;96870.84;5045010;28;20092;-49
2022/07/21 09:01:37;;;;;;;16.63;11.75;;;;;;;27.37;100.00;96868.78;5040096;28;20100;-52
2022/07/21 09:04:21;;;;;;;14.63;11.93;;;;;;;27.51;100.00;96863.91;5048242;28;20088;-47
2022/07/21 09:06:55;;;;;;;11.93;10.20;;;;;;;27.43;100.00;96870.53;5048327;28;20084;-49
2022/07/21 09:09:24;;;;;;;12.27;10.98;;;;;;;27.57;100.00;96868.34;5041601;28;20101;-48
2022/07/21 09:11:53;;;;;;;14.02;11.48;;;;;;;27.20;100.00;96864.13;5041686;28;20080;-59
2022/07/21 09:14:25;;;;;;;11.32;10.23;;;;;;;27.54;100.00;96872.38;5048361;28;20103;-53
2022/07/21 09:16:56;;;;;;;11.70;10.50;;;;;;;27.39;100.00;96872.91;5048366;28;20085;-51
2022/07/21 09:19:33;;;;;;;12.20;10.90;;;;;;;27.24;100.00;96869.88;5048242;28;20091;-58
2022/07/21 09:22:03;;;;;;;12.85;10.45;;;;;;;27.55;100.00;96873.19;5050435;28;20089;-49
2022/07/21 09:24:38;;;;;;;11.57;9.75;;;;;;;27.15;100.00;96874.03;5051966;28;20095;-49
2022/07/21 09:27:09;;;;;;;11.90;9.95;;;;;;;27.11;100.00;96862.00;5048429;28;20092;-50
2022/07/21 09:29:46;;;;;;;14.20;9.05;;;;;;;27.16;100.00;96870.28;5051886;28;20095;-49
2022/07/21 09:32:23;;;;;;;11.10;9.60;;;;;;;27.54;100.00;96872.38;5049277;28;20115;-46
2022/07/21 09:34:53;;;;;;;12.32;10.05;;;;;;;27.57;100.00;96874.59;5045518;28;20099;-52
2022/07/21 09:37:23;;;;;;;11.50;9.98;;;;;;;27.79;100.00;96866.59;5051972;28;20084;-56
2022/07/21 09:39:53;;;;;;;10.90;9.32;;;;;;;27.78;100.00;96875.81;5051867;28;20096;-49
2022/07/21 09:42:24;;;;;;;11.32;9.52;;;;;;;27.95;100.00;96869.59;5051398;28;20089;-53
2022/07/21 09:44:58;;;;;;;12.25;9.75;;;;;;;27.69;100.00;96874.53;5052012;28;20580;-51
2022/07/21 09:47:29;;;;;;;12.73;9.95;;;;;;;27.61;100.00;96880.34;5051651;28;20103;-50
2022/07/21 09:50:01;;;;;;;11.32;10.07;;;;;;;27.20;100.00;96883.06;5049413;28;20048;-51
2022/07/21 09:52:54;;;;;;;11.48;9.90;;;;;;;27.31;100.00;96878.69;5051176;28;20558;-50
2022/07/21 09:55:23;;;;;;;10.88;9.65;;;;;;;27.55;100.00;96875.88;5045326;28;20096;-54
2022/07/21 09:57:51;;;;;;;13.20;10.45;;;;;;;27.87;100.00;96879.78;5051279;28;20091;-62
2022/07/21 10:00:21;;;;;;;10.60;9.50;;;;;;;27.64;100.00;96880.69;5051481;28;20545;-53
2022/07/21 10:02:50;;;;;;;13.45;10.60;;;;;;;27.73;100.00;96885.69;5051173;28;20091;-50
2022/07/21 10:05:20;;;;;;;12.90;10.45;;;;;;;27.85;100.00;96884.63;5050829;28;20081;-47
2022/07/21 10:07:58;;;;;;;11.75;10.48;;;;;;;27.85;100.00;96875.66;5051561;28;20076;-49
2022/07/21 10:10:26;;;;;;;14.75;11.63;;;;;;;28.16;100.00;96872.38;5051090;28;20084;-48
2022/07/21 10:13:15;;;;;;;14.07;11.75;;;;;;;28.17;100.00;96878.63;5051036;28;20076;-49
2022/07/21 10:15:47;;;;;;;15.15;12.68;;;;;;;28.05;100.00;96876.00;5051275;28;20081;-53
2022/07/21 10:21:03;;;;;;;12.98;11.55;;;;;;;27.76;100.00;96886.06;5045655;28;20084;-52
2022/07/21 10:23:37;;;;;;;14.10;11.75;;;;;;;27.29;100.00;96890.81;5048658;28;20550;-47
2022/07/21 10:26:06;;;;;;;13.25;11.73;;;;;;;27.43;100.00;96890.31;5049568;28;20079;-48
2022/07/21 10:28:35;;;;;;;15.25;12.05;;;;;;;27.53;100.00;96886.97;5046292;28;20080;-56
2022/07/21 10:31:16;;;;;;;13.75;12.25;;;;;;;27.04;100.00;96881.09;5043801;28;20076;-49
2022/07/21 10:33:59;;;;;;;13.73;12.07;;;;;;;27.10;100.00;96885.53;5050577;28;20091;-48
2022/07/21 10:36:46;;;;;;;14.93;12.40;;;;;;;27.45;100.00;96885.47;5044758;28;20080;-54
2022/07/21 10:39:25;;;;;;;13.50;12.10;;;;;;;27.21;100.00;96879.31;5050916;28;20077;-50
2022/07/21 10:41:59;;;;;;;13.57;12.07;;;;;;;27.25;100.00;96879.63;5051242;28;20061;-55
2022/07/21 10:44:39;;;;;;;13.57;12.18;;;;;;;26.83;100.00;96890.66;5050578;28;20080;-46
2022/07/21 10:47:10;;;;;;;13.30;11.88;;;;;;;26.83;100.00;96885.25;5036425;28;20089;-55
2022/07/21 10:49:54;;;;;;;17.77;12.95;;;;;;;26.73;100.00;96885.84;5046018;28;20068;-49
2022/07/21 10:53:00;;;;;;;13.90;12.35;;;;;;;26.30;100.00;96897.00;5050199;28;20091;-49
2022/07/21 10:55:30;;;;;;;13.60;12.20;;;;;;;26.26;100.00;96891.22;5050290;28;20083;-49
2022/07/21 10:58:19;;;;;;;;;;;;;;;25.99;100.00;96896.25;5051416;28;20064;-53
2022/07/21 11:00:50;;;;;;;16.85;12.18;;;;;;;26.22;100.00;96894.63;5044454;28;19948;-54
2022/07/21 11:03:28;;;;;;;19.88;13.27;;;;;;;26.19;100.00;96895.13;5049900;28;20088;-57
2022/07/21 11:06:22;;;;;;;15.00;13.38;;;;;;;25.92;100.00;96898.22;5043760;28;20117;-49
2022/07/21 11:09:10;;;;;;;18.58;14.32;;;;;;;26.07;100.00;96892.38;5047883;28;20077;-50
2022/07/21 11:11:40;;;;;;;17.70;14.13;;;;;;;25.93;100.00;96907.16;5044603;28;20065;-48
2022/07/21 11:14:12;;;;;;;16.42;14.05;;;;;;;26.08;100.00;96898.59;5043940;28;20068;-62
2022/07/21 11:17:08;;;;;;;16.10;13.98;;;;;;;26.39;100.00;96890.16;5044156;28;20087;-50
2022/07/21 11:19:41;;;;;;;18.25;13.88;;;;;;;26.11;100.00;96892.72;5030878;28;20077;-49
2022/07/21 11:22:14;;;;;;;16.13;13.75;;;;;;;26.39;100.00;96892.06;5048372;28;20099;-52
2022/07/21 11:24:44;;;;;;;17.25;15.15;;;;;;;26.33;100.00;96884.91;5049481;28;20072;-53
2022/07/21 11:27:14;;;;;;;16.75;13.90;;;;;;;26.22;100.00;96892.75;5050750;28;20083;-48
2022/07/21 11:29:45;;;;;;;18.20;14.07;;;;;;;26.31;100.00;96890.53;5049315;28;20064;-50
2022/07/21 11:32:15;;;;;;;18.48;13.82;;;;;;;26.68;100.00;96883.03;5050340;28;20076;-50
2022/07/21 11:34:47;;;;;;;;;;;;;;;26.75;100.00;96886.44;5047057;28;20329;-55
2022/07/21 11:37:17;;;;;;;17.85;13.65;;;;;;;26.91;100.00;96882.19;5049677;28;19967;-52